메인 페이지
METAR-TAF:

METAR-TAF

공항 :

트리부반 국제공항

카트만두, 네팔

위도: 27-42N, 경도: 085-22E, 고도: 1337m

현재 날씨관측

예보는 24분 전, 17:20시(UTC)에 발표되었습니다.
4kt남남동풍과 남서풍을 오가는
온도 20°C
습도 94%
기압 1017 hPa
시정: 7000m
고도 1500ft 상공 구름 조금
고도 3000ft 상공 구름 보통
고도 10000ft 상공 구름 많음
이슬비

METAR: VNKT 311720Z 17004KT 150V220 7000 DZ FEW015 SCT030 BKN100 20/19 Q1017 NOSIG

시각: 23:29 (17:44 UTC)

예보

예보는 12 시간 44분 전, 05:00시(UTC)에 발표되었습니다.
예보 대상 시간: 31일 06시부터 01일 06시까지 (UTC)
5kt
시정: 7000m
고도 1000ft 상공 구름 조금
고도 3000ft 상공 구름 보통
고도 10000ft 상공 구름 많음
전환 중
31일 07시부터 31일 09시까지 (UTC)
서남서9kt
시정 10km 이상
고도 2000ft 상공 구름 조금
고도 2500ft 상공 구름 보통
확률 30%
31일 08시부터 31일 12시까지 (UTC)
여러 방향의 바람 10kt
시정: 4000m
고도 2500ft 상공 구름 조금, 적란운.
뇌우, 약한비
전환 중
31일 14시부터 31일 15시까지 (UTC)
서남서4kt
시정: 7000m
고도 1500ft 상공 구름 조금
고도 2500ft 상공 구름 보통
고도 10000ft 상공 구름 많음
확률 40%
01일 01시부터 01일 03시까지 (UTC)
시정: 4000m
전환 중
01일 04시부터 01일 05시까지 (UTC)
남동4kt
시정: 7000m
고도 1500ft 상공 구름 조금
고도 3000ft 상공 구름 보통
고도 10000ft 상공 구름 많음

TAF: VNKT 310500Z 3106/0106 28005KT 7000 FEW010 SCT030 BKN100 BECMG 3107/3109 25009KT 9999 FEW020 SCT025 PROB30 3108/3112 VRB10KT 4000 -TSRA FEW025CB BECMG 3114/3115 25004KT 7000 FEW015 SCT025 BKN100 PROB40 0101/0103 4000 -RA/BR BECMG 0104/0105 13004KT 7000 FEW015 SCT030 BKN100

4,000개 이상의 공항 관측 자료 및 예보 (METAR 및 TAF 보고).

지도상에서 검색 가능한 기상관측소가 노란 점과 빨간 점으로 표시되어 있습니다.

기상관측소 명을 보려면 표시 위로 마우스를 이동하세요.

날씨 관측과 예보를 보려면 클릭하세요.

지도 변경 : 확대하려면 엑스 표시가 있는 녹색 버튼, 축소하려면 빼기 표시가 있는 녹색 버튼, 다음 페이지의 지도를 보려면 녹색 화살표를 클릭하세요.


METAR-TAF: